sensor_id;sensor_type;location;lat;lon;timestamp;pressure;altitude;pressure_sealevel;temperature;humidity
73501;BME280;61721;42.206;25.320;2024-01-16T00:01:49;98186.00;;;2.49;66.39
73501;BME280;61721;42.206;25.320;2024-01-16T00:04:16;98189.47;;;2.36;66.85
73501;BME280;61721;42.206;25.320;2024-01-16T00:06:44;98180.63;;;2.01;68.05
73501;BME280;61721;42.206;25.320;2024-01-16T00:09:11;98180.25;;;2.58;67.14
73501;BME280;61721;42.206;25.320;2024-01-16T00:11:40;98177.97;;;2.08;67.30
73501;BME280;61721;42.206;25.320;2024-01-16T00:14:07;98183.19;;;1.81;69.05
73501;BME280;61721;42.206;25.320;2024-01-16T00:16:42;98185.06;;;2.22;67.97
73501;BME280;61721;42.206;25.320;2024-01-16T00:19:11;98172.38;;;2.50;67.10
73501;BME280;61721;42.206;25.320;2024-01-16T00:22:05;98175.28;;;2.55;67.67
73501;BME280;61721;42.206;25.320;2024-01-16T00:24:40;98163.72;;;2.55;67.06
73501;BME280;61721;42.206;25.320;2024-01-16T00:27:07;98158.66;;;2.26;67.25
73501;BME280;61721;42.206;25.320;2024-01-16T00:29:35;98156.44;;;2.42;67.42
73501;BME280;61721;42.206;25.320;2024-01-16T00:32:02;98157.16;;;2.71;67.05
73501;BME280;61721;42.206;25.320;2024-01-16T00:34:31;98160.03;;;2.69;66.07
73501;BME280;61721;42.206;25.320;2024-01-16T00:36:59;98150.19;;;3.03;65.63
73501;BME280;61721;42.206;25.320;2024-01-16T00:39:26;98155.91;;;2.80;65.35
73501;BME280;61721;42.206;25.320;2024-01-16T00:41:54;98151.84;;;2.97;65.34
73501;BME280;61721;42.206;25.320;2024-01-16T00:44:21;98151.84;;;3.30;65.17
73501;BME280;61721;42.206;25.320;2024-01-16T00:46:49;98167.91;;;2.77;65.58
73501;BME280;61721;42.206;25.320;2024-01-16T00:49:17;98158.44;;;3.27;64.90
73501;BME280;61721;42.206;25.320;2024-01-16T00:51:46;98160.06;;;2.89;65.78
73501;BME280;61721;42.206;25.320;2024-01-16T00:54:13;98158.66;;;3.06;64.83
73501;BME280;61721;42.206;25.320;2024-01-16T00:56:42;98167.69;;;2.72;67.12
73501;BME280;61721;42.206;25.320;2024-01-16T00:59:09;98166.06;;;2.17;68.32
73501;BME280;61721;42.206;25.320;2024-01-16T01:01:37;98163.25;;;2.38;67.59
73501;BME280;61721;42.206;25.320;2024-01-16T01:04:04;98170.59;;;2.23;68.92
73501;BME280;61721;42.206;25.320;2024-01-16T01:06:32;98157.47;;;2.41;68.25
73501;BME280;61721;42.206;25.320;2024-01-16T01:09:00;98148.00;;;2.52;67.41
73501;BME280;61721;42.206;25.320;2024-01-16T01:11:28;98147.53;;;2.29;67.97
73501;BME280;61721;42.206;25.320;2024-01-16T01:13:56;98151.16;;;2.08;69.04
73501;BME280;61721;42.206;25.320;2024-01-16T01:16:23;98144.34;;;2.59;68.23
73501;BME280;61721;42.206;25.320;2024-01-16T01:18:51;98149.88;;;2.04;68.81
73501;BME280;61721;42.206;25.320;2024-01-16T01:21:18;98143.78;;;2.23;68.45
73501;BME280;61721;42.206;25.320;2024-01-16T01:23:45;98128.75;;;2.29;68.94
73501;BME280;61721;42.206;25.320;2024-01-16T01:26:22;98114.22;;;2.84;66.73
73501;BME280;61721;42.206;25.320;2024-01-16T01:28:49;98109.03;;;2.76;66.99
73501;BME280;61721;42.206;25.320;2024-01-16T01:31:16;98106.75;;;2.73;66.71
73501;BME280;61721;42.206;25.320;2024-01-16T01:33:44;98100.16;;;2.82;66.61
73501;BME280;61721;42.206;25.320;2024-01-16T01:36:11;98101.84;;;2.96;65.68
73501;BME280;61721;42.206;25.320;2024-01-16T01:38:38;98105.53;;;2.88;65.55
73501;BME280;61721;42.206;25.320;2024-01-16T01:41:06;98098.53;;;2.87;66.19
73501;BME280;61721;42.206;25.320;2024-01-16T01:43:34;98108.81;;;2.57;66.79
73501;BME280;61721;42.206;25.320;2024-01-16T01:46:16;98098.47;;;2.54;67.06
73501;BME280;61721;42.206;25.320;2024-01-16T01:48:46;98101.78;;;2.70;66.92
73501;BME280;61721;42.206;25.320;2024-01-16T01:51:16;98091.91;;;2.77;66.21
73501;BME280;61721;42.206;25.320;2024-01-16T01:53:44;98092.94;;;2.76;65.94
73501;BME280;61721;42.206;25.320;2024-01-16T01:56:14;98109.19;;;2.54;65.78
73501;BME280;61721;42.206;25.320;2024-01-16T01:58:47;98112.84;;;2.34;66.96
73501;BME280;61721;42.206;25.320;2024-01-16T02:01:15;98116.09;;;2.09;68.50
73501;BME280;61721;42.206;25.320;2024-01-16T02:03:45;98111.00;;;2.41;67.42
73501;BME280;61721;42.206;25.320;2024-01-16T02:06:14;98109.16;;;2.28;67.06
73501;BME280;61721;42.206;25.320;2024-01-16T02:08:42;98114.81;;;1.99;67.36
73501;BME280;61721;42.206;25.320;2024-01-16T02:11:09;98122.41;;;2.49;66.49
73501;BME280;61721;42.206;25.320;2024-01-16T02:13:38;98113.22;;;2.17;66.93
73501;BME280;61721;42.206;25.320;2024-01-16T02:16:17;98130.28;;;2.57;65.78
73501;BME280;61721;42.206;25.320;2024-01-16T02:18:44;98129.31;;;2.17;66.17
73501;BME280;61721;42.206;25.320;2024-01-16T02:21:15;98112.00;;;2.20;66.64
73501;BME280;61721;42.206;25.320;2024-01-16T02:23:46;98116.78;;;1.83;67.79
73501;BME280;61721;42.206;25.320;2024-01-16T02:26:14;98128.09;;;1.72;68.35
73501;BME280;61721;42.206;25.320;2024-01-16T02:28:42;98131.66;;;1.86;68.22
73501;BME280;61721;42.206;25.320;2024-01-16T02:31:10;98129.25;;;2.04;66.53
73501;BME280;61721;42.206;25.320;2024-01-16T02:33:37;98122.81;;;2.46;66.26
73501;BME280;61721;42.206;25.320;2024-01-16T02:36:05;98124.03;;;2.37;65.91
73501;BME280;61721;42.206;25.320;2024-01-16T02:38:32;98124.41;;;2.34;65.74
73501;BME280;61721;42.206;25.320;2024-01-16T02:41:01;98138.38;;;1.75;67.77
73501;BME280;61721;42.206;25.320;2024-01-16T02:43:28;98150.31;;;2.07;66.74
73501;BME280;61721;42.206;25.320;2024-01-16T02:45:56;98152.06;;;2.28;65.82
73501;BME280;61721;42.206;25.320;2024-01-16T02:48:23;98157.56;;;1.72;66.89
73501;BME280;61721;42.206;25.320;2024-01-16T02:50:51;98158.19;;;1.19;69.70
73501;BME280;61721;42.206;25.320;2024-01-16T02:53:18;98148.22;;;2.03;67.56
73501;BME280;61721;42.206;25.320;2024-01-16T02:55:46;98147.03;;;2.12;67.25
73501;BME280;61721;42.206;25.320;2024-01-16T02:58:15;98162.38;;;2.31;66.11
73501;BME280;61721;42.206;25.320;2024-01-16T03:00:42;98167.66;;;1.70;67.80
73501;BME280;61721;42.206;25.320;2024-01-16T03:03:11;98175.22;;;1.60;67.65
73501;BME280;61721;42.206;25.320;2024-01-16T03:05:38;98159.19;;;1.39;68.51
73501;BME280;61721;42.206;25.320;2024-01-16T03:08:06;98154.69;;;1.46;68.61
73501;BME280;61721;42.206;25.320;2024-01-16T03:10:34;98152.22;;;1.72;68.22
73501;BME280;61721;42.206;25.320;2024-01-16T03:13:01;98152.84;;;2.22;65.73
73501;BME280;61721;42.206;25.320;2024-01-16T03:15:30;98146.53;;;1.95;66.64
73501;BME280;61721;42.206;25.320;2024-01-16T03:17:57;98149.22;;;2.36;65.57
73501;BME280;61721;42.206;25.320;2024-01-16T03:20:25;98163.84;;;1.93;66.57
73501;BME280;61721;42.206;25.320;2024-01-16T03:22:53;98159.16;;;1.32;68.89
73501;BME280;61721;42.206;25.320;2024-01-16T03:25:21;98165.69;;;1.51;68.42
73501;BME280;61721;42.206;25.320;2024-01-16T03:27:48;98177.44;;;1.84;67.54
73501;BME280;61721;42.206;25.320;2024-01-16T03:30:15;98177.63;;;1.55;68.28
73501;BME280;61721;42.206;25.320;2024-01-16T03:32:44;98182.13;;;0.99;70.15
73501;BME280;61721;42.206;25.320;2024-01-16T03:35:11;98186.41;;;1.15;70.07
73501;BME280;61721;42.206;25.320;2024-01-16T03:37:39;98181.91;;;1.43;69.39
73501;BME280;61721;42.206;25.320;2024-01-16T03:40:07;98180.47;;;1.47;69.20
73501;BME280;61721;42.206;25.320;2024-01-16T03:42:34;98178.66;;;1.82;67.98
73501;BME280;61721;42.206;25.320;2024-01-16T03:45:02;98195.84;;;1.60;68.85
73501;BME280;61721;42.206;25.320;2024-01-16T03:47:29;98178.22;;;1.78;68.02
73501;BME280;61721;42.206;25.320;2024-01-16T03:49:58;98176.09;;;1.67;68.10
73501;BME280;61721;42.206;25.320;2024-01-16T03:52:25;98177.44;;;1.84;68.39
73501;BME280;61721;42.206;25.320;2024-01-16T03:54:53;98174.63;;;1.37;69.22
73501;BME280;61721;42.206;25.320;2024-01-16T03:57:20;98168.28;;;2.13;67.93
73501;BME280;61721;42.206;25.320;2024-01-16T03:59:47;98175.19;;;2.29;66.91
73501;BME280;61721;42.206;25.320;2024-01-16T04:02:15;98177.72;;;2.03;68.09
73501;BME280;61721;42.206;25.320;2024-01-16T04:04:42;98199.78;;;1.92;68.08
73501;BME280;61721;42.206;25.320;2024-01-16T04:07:11;98205.50;;;1.89;68.36
73501;BME280;61721;42.206;25.320;2024-01-16T04:09:38;98189.91;;;1.99;68.04
73501;BME280;61721;42.206;25.320;2024-01-16T04:12:05;98202.34;;;1.78;68.45
73501;BME280;61721;42.206;25.320;2024-01-16T04:14:34;98195.38;;;1.56;68.99
73501;BME280;61721;42.206;25.320;2024-01-16T04:17:01;98204.59;;;1.47;69.07
73501;BME280;61721;42.206;25.320;2024-01-16T04:19:29;98216.81;;;1.56;69.42
73501;BME280;61721;42.206;25.320;2024-01-16T04:21:59;98210.09;;;1.39;69.03
73501;BME280;61721;42.206;25.320;2024-01-16T04:24:29;98225.63;;;1.71;68.53
73501;BME280;61721;42.206;25.320;2024-01-16T04:26:56;98243.16;;;1.25;69.52
73501;BME280;61721;42.206;25.320;2024-01-16T04:29:23;98241.59;;;1.16;69.79
73501;BME280;61721;42.206;25.320;2024-01-16T04:31:51;98246.47;;;1.05;70.71
73501;BME280;61721;42.206;25.320;2024-01-16T04:34:18;98248.41;;;0.97;71.38
73501;BME280;61721;42.206;25.320;2024-01-16T04:36:46;98255.53;;;1.04;71.40
73501;BME280;61721;42.206;25.320;2024-01-16T04:39:13;98258.63;;;1.08;71.06
73501;BME280;61721;42.206;25.320;2024-01-16T04:41:42;98267.13;;;1.11;70.94
73501;BME280;61721;42.206;25.320;2024-01-16T04:44:09;98281.69;;;1.24;70.99
73501;BME280;61721;42.206;25.320;2024-01-16T04:46:37;98272.63;;;1.25;71.17
73501;BME280;61721;42.206;25.320;2024-01-16T04:49:04;98268.25;;;1.45;70.82
73501;BME280;61721;42.206;25.320;2024-01-16T04:51:31;98285.25;;;1.52;70.35
73501;BME280;61721;42.206;25.320;2024-01-16T04:53:59;98281.16;;;2.12;68.98
73501;BME280;61721;42.206;25.320;2024-01-16T04:56:26;98291.88;;;2.12;68.46
73501;BME280;61721;42.206;25.320;2024-01-16T04:58:55;98297.19;;;2.33;67.60
73501;BME280;61721;42.206;25.320;2024-01-16T05:01:22;98283.91;;;1.63;68.58
73501;BME280;61721;42.206;25.320;2024-01-16T05:03:50;98299.66;;;1.51;69.82
73501;BME280;61721;42.206;25.320;2024-01-16T05:06:18;98315.47;;;1.46;69.65
73501;BME280;61721;42.206;25.320;2024-01-16T05:08:45;98312.50;;;1.83;68.71
73501;BME280;61721;42.206;25.320;2024-01-16T05:11:12;98328.75;;;2.31;67.46
73501;BME280;61721;42.206;25.320;2024-01-16T05:13:40;98328.50;;;1.92;67.52
73501;BME280;61721;42.206;25.320;2024-01-16T05:16:09;98322.69;;;1.45;68.89
73501;BME280;61721;42.206;25.320;2024-01-16T05:18:37;98342.41;;;1.80;68.70
73501;BME280;61721;42.206;25.320;2024-01-16T05:21:04;98327.94;;;1.32;69.13
73501;BME280;61721;42.206;25.320;2024-01-16T05:23:32;98333.16;;;1.40;68.78
73501;BME280;61721;42.206;25.320;2024-01-16T05:26:00;98331.16;;;1.28;68.73
73501;BME280;61721;42.206;25.320;2024-01-16T05:28:27;98342.59;;;1.00;69.37
73501;BME280;61721;42.206;25.320;2024-01-16T05:30:54;98357.28;;;1.04;69.36
73501;BME280;61721;42.206;25.320;2024-01-16T05:33:23;98348.59;;;1.02;68.62
73501;BME280;61721;42.206;25.320;2024-01-16T05:35:51;98364.31;;;1.05;68.91
73501;BME280;61721;42.206;25.320;2024-01-16T05:38:18;98370.50;;;1.42;67.89
73501;BME280;61721;42.206;25.320;2024-01-16T05:40:45;98363.38;;;0.98;68.49
73501;BME280;61721;42.206;25.320;2024-01-16T05:43:12;98379.34;;;1.64;67.88
73501;BME280;61721;42.206;25.320;2024-01-16T05:45:40;98378.28;;;1.79;66.80
73501;BME280;61721;42.206;25.320;2024-01-16T05:48:07;98373.97;;;2.06;66.00
73501;BME280;61721;42.206;25.320;2024-01-16T05:50:36;98382.34;;;1.54;66.75
73501;BME280;61721;42.206;25.320;2024-01-16T05:53:04;98390.41;;;1.18;68.08
73501;BME280;61721;42.206;25.320;2024-01-16T05:55:31;98399.22;;;1.69;67.35
73501;BME280;61721;42.206;25.320;2024-01-16T05:58:01;98412.34;;;1.64;66.08
73501;BME280;61721;42.206;25.320;2024-01-16T06:00:28;98424.09;;;1.42;67.08
73501;BME280;61721;42.206;25.320;2024-01-16T06:02:56;98432.22;;;2.12;65.63
73501;BME280;61721;42.206;25.320;2024-01-16T06:05:23;98449.97;;;2.35;63.99
73501;BME280;61721;42.206;25.320;2024-01-16T06:07:52;98454.03;;;1.67;66.05
73501;BME280;61721;42.206;25.320;2024-01-16T06:10:20;98464.69;;;1.60;66.04
73501;BME280;61721;42.206;25.320;2024-01-16T06:12:47;98466.31;;;1.76;65.67
73501;BME280;61721;42.206;25.320;2024-01-16T06:15:15;98484.44;;;2.10;65.02
73501;BME280;61721;42.206;25.320;2024-01-16T06:17:42;98488.63;;;1.98;64.70
73501;BME280;61721;42.206;25.320;2024-01-16T06:20:10;98492.09;;;1.41;66.06
73501;BME280;61721;42.206;25.320;2024-01-16T06:22:38;98492.75;;;1.43;66.61
73501;BME280;61721;42.206;25.320;2024-01-16T06:25:07;98493.94;;;1.76;66.64
73501;BME280;61721;42.206;25.320;2024-01-16T06:27:35;98493.72;;;1.93;66.33
73501;BME280;61721;42.206;25.320;2024-01-16T06:30:02;98500.25;;;2.26;65.63
73501;BME280;61721;42.206;25.320;2024-01-16T06:32:30;98506.28;;;2.77;64.51
73501;BME280;61721;42.206;25.320;2024-01-16T06:34:58;98519.13;;;2.82;64.23
73501;BME280;61721;42.206;25.320;2024-01-16T06:37:25;98532.53;;;2.82;64.17
73501;BME280;61721;42.206;25.320;2024-01-16T06:39:53;98537.78;;;2.90;63.56
73501;BME280;61721;42.206;25.320;2024-01-16T06:42:22;98543.97;;;2.90;63.91
73501;BME280;61721;42.206;25.320;2024-01-16T06:44:49;98549.66;;;3.02;63.61
73501;BME280;61721;42.206;25.320;2024-01-16T06:47:16;98539.38;;;3.12;63.42
73501;BME280;61721;42.206;25.320;2024-01-16T06:49:44;98544.91;;;3.04;63.52
73501;BME280;61721;42.206;25.320;2024-01-16T06:52:11;98556.41;;;2.70;64.23
73501;BME280;61721;42.206;25.320;2024-01-16T06:54:38;98563.56;;;3.12;65.05
73501;BME280;61721;42.206;25.320;2024-01-16T06:57:06;98567.06;;;3.06;64.55
73501;BME280;61721;42.206;25.320;2024-01-16T06:59:35;98579.31;;;3.15;64.89
73501;BME280;61721;42.206;25.320;2024-01-16T07:02:03;98579.50;;;3.42;64.27
73501;BME280;61721;42.206;25.320;2024-01-16T07:04:30;98585.97;;;3.54;64.81
73501;BME280;61721;42.206;25.320;2024-01-16T07:06:58;98581.03;;;3.23;65.30
73501;BME280;61721;42.206;25.320;2024-01-16T07:09:33;98580.63;;;3.26;66.09
73501;BME280;61721;42.206;25.320;2024-01-16T07:12:01;98585.88;;;3.06;65.92
73501;BME280;61721;42.206;25.320;2024-01-16T07:14:29;98590.69;;;3.17;66.84
73501;BME280;61721;42.206;25.320;2024-01-16T07:16:58;98591.13;;;2.93;67.81
73501;BME280;61721;42.206;25.320;2024-01-16T07:19:26;98607.94;;;2.80;68.47
73501;BME280;61721;42.206;25.320;2024-01-16T07:21:53;98634.06;;;2.50;69.67
73501;BME280;61721;42.206;25.320;2024-01-16T07:24:21;98638.19;;;2.46;69.41
73501;BME280;61721;42.206;25.320;2024-01-16T07:26:48;98628.91;;;2.49;69.62
73501;BME280;61721;42.206;25.320;2024-01-16T07:29:15;98646.13;;;2.97;69.29
73501;BME280;61721;42.206;25.320;2024-01-16T07:31:42;98649.50;;;3.06;67.83
73501;BME280;61721;42.206;25.320;2024-01-16T07:34:11;98659.81;;;3.02;66.96
73501;BME280;61721;42.206;25.320;2024-01-16T07:36:43;98669.22;;;3.13;66.46
73501;BME280;61721;42.206;25.320;2024-01-16T07:39:10;98662.84;;;3.20;65.43
73501;BME280;61721;42.206;25.320;2024-01-16T07:41:38;98675.66;;;3.18;64.69
73501;BME280;61721;42.206;25.320;2024-01-16T07:44:05;98680.28;;;3.52;63.62
73501;BME280;61721;42.206;25.320;2024-01-16T07:46:33;98693.00;;;3.65;63.43
73501;BME280;61721;42.206;25.320;2024-01-16T07:49:00;98697.69;;;3.84;63.76
73501;BME280;61721;42.206;25.320;2024-01-16T07:51:29;98706.28;;;4.01;63.26
73501;BME280;61721;42.206;25.320;2024-01-16T07:54:06;98708.63;;;4.10;62.76
73501;BME280;61721;42.206;25.320;2024-01-16T07:56:33;98715.63;;;4.46;61.91
73501;BME280;61721;42.206;25.320;2024-01-16T07:59:01;98723.63;;;4.33;61.74
73501;BME280;61721;42.206;25.320;2024-01-16T08:01:28;98724.88;;;4.30;61.72
73501;BME280;61721;42.206;25.320;2024-01-16T08:03:56;98737.06;;;4.67;60.67
73501;BME280;61721;42.206;25.320;2024-01-16T08:06:23;98750.97;;;4.30;62.14
73501;BME280;61721;42.206;25.320;2024-01-16T08:08:52;98764.19;;;4.59;62.06
73501;BME280;61721;42.206;25.320;2024-01-16T08:11:20;98758.69;;;4.39;62.06
73501;BME280;61721;42.206;25.320;2024-01-16T08:13:47;98764.88;;;4.74;61.80
73501;BME280;61721;42.206;25.320;2024-01-16T08:16:14;98771.97;;;4.89;61.25
73501;BME280;61721;42.206;25.320;2024-01-16T08:18:42;98770.47;;;4.32;63.04
73501;BME280;61721;42.206;25.320;2024-01-16T08:21:09;98769.31;;;4.95;61.12
73501;BME280;61721;42.206;25.320;2024-01-16T08:23:37;98766.28;;;5.31;60.52
73501;BME280;61721;42.206;25.320;2024-01-16T08:26:13;98772.59;;;4.91;60.88
73501;BME280;61721;42.206;25.320;2024-01-16T08:28:41;98780.72;;;4.97;61.15
73501;BME280;61721;42.206;25.320;2024-01-16T08:31:08;98793.63;;;5.21;61.41
73501;BME280;61721;42.206;25.320;2024-01-16T08:33:36;98796.19;;;5.49;59.79
73501;BME280;61721;42.206;25.320;2024-01-16T08:36:04;98801.84;;;4.94;60.96
73501;BME280;61721;42.206;25.320;2024-01-16T08:38:32;98808.13;;;5.14;60.46
73501;BME280;61721;42.206;25.320;2024-01-16T08:40:59;98809.34;;;4.98;61.29
73501;BME280;61721;42.206;25.320;2024-01-16T08:43:28;98811.09;;;5.39;60.71
73501;BME280;61721;42.206;25.320;2024-01-16T08:45:55;98810.94;;;5.53;60.42
73501;BME280;61721;42.206;25.320;2024-01-16T08:48:23;98826.59;;;5.91;60.42
73501;BME280;61721;42.206;25.320;2024-01-16T08:50:51;98815.16;;;6.28;58.81
73501;BME280;61721;42.206;25.320;2024-01-16T08:53:19;98821.19;;;6.17;58.68
73501;BME280;61721;42.206;25.320;2024-01-16T08:55:49;98823.28;;;6.02;58.20
73501;BME280;61721;42.206;25.320;2024-01-16T08:58:16;98827.53;;;5.50;59.78
73501;BME280;61721;42.206;25.320;2024-01-16T09:00:45;98828.22;;;6.38;59.00
73501;BME280;61721;42.206;25.320;2024-01-16T09:03:12;98830.75;;;6.13;59.20
73501;BME280;61721;42.206;25.320;2024-01-16T09:05:40;98832.38;;;6.27;59.55
73501;BME280;61721;42.206;25.320;2024-01-16T09:08:09;98835.06;;;6.54;59.73
73501;BME280;61721;42.206;25.320;2024-01-16T09:10:37;98837.38;;;6.17;60.12
73501;BME280;61721;42.206;25.320;2024-01-16T09:13:05;98832.00;;;6.04;61.71
73501;BME280;61721;42.206;25.320;2024-01-16T09:15:32;98839.88;;;6.06;62.14
73501;BME280;61721;42.206;25.320;2024-01-16T09:18:01;98836.75;;;6.48;61.58
73501;BME280;61721;42.206;25.320;2024-01-16T09:20:29;98851.09;;;6.22;62.34
73501;BME280;61721;42.206;25.320;2024-01-16T09:22:56;98857.09;;;6.44;62.47
73501;BME280;61721;42.206;25.320;2024-01-16T09:25:23;98866.41;;;6.81;62.29
73501;BME280;61721;42.206;25.320;2024-01-16T09:27:52;98864.31;;;6.83;62.48
73501;BME280;61721;42.206;25.320;2024-01-16T09:30:20;98861.34;;;7.11;62.23
73501;BME280;61721;42.206;25.320;2024-01-16T09:32:48;98860.53;;;6.97;62.61
73501;BME280;61721;42.206;25.320;2024-01-16T09:35:17;98860.97;;;7.01;62.64
73501;BME280;61721;42.206;25.320;2024-01-16T09:37:44;98852.59;;;7.09;62.37
73501;BME280;61721;42.206;25.320;2024-01-16T09:40:11;98853.06;;;6.99;62.25
73501;BME280;61721;42.206;25.320;2024-01-16T09:42:40;98867.56;;;7.18;62.49
73501;BME280;61721;42.206;25.320;2024-01-16T09:45:09;98857.56;;;7.19;62.25
73501;BME280;61721;42.206;25.320;2024-01-16T09:47:37;98866.66;;;7.31;62.25
73501;BME280;61721;42.206;25.320;2024-01-16T09:50:06;98858.09;;;7.34;61.94
73501;BME280;61721;42.206;25.320;2024-01-16T09:52:34;98863.78;;;7.26;60.37
73501;BME280;61721;42.206;25.320;2024-01-16T09:55:02;98851.28;;;7.25;59.67
73501;BME280;61721;42.206;25.320;2024-01-16T09:57:30;98848.69;;;7.43;59.22
73501;BME280;61721;42.206;25.320;2024-01-16T10:00:00;98865.38;;;7.40;59.04
73501;BME280;61721;42.206;25.320;2024-01-16T10:02:28;98863.38;;;7.60;58.62
73501;BME280;61721;42.206;25.320;2024-01-16T10:04:56;98874.03;;;7.55;58.78
73501;BME280;61721;42.206;25.320;2024-01-16T10:07:25;98876.91;;;7.60;58.28
73501;BME280;61721;42.206;25.320;2024-01-16T10:09:57;98887.38;;;7.50;58.53
73501;BME280;61721;42.206;25.320;2024-01-16T10:12:26;98891.69;;;7.64;57.79
73501;BME280;61721;42.206;25.320;2024-01-16T10:14:54;98892.63;;;7.83;57.43
73501;BME280;61721;42.206;25.320;2024-01-16T10:17:35;98897.84;;;7.85;56.98
73501;BME280;61721;42.206;25.320;2024-01-16T10:20:03;98910.06;;;7.94;56.33
73501;BME280;61721;42.206;25.320;2024-01-16T10:22:31;98903.38;;;7.96;56.75
73501;BME280;61721;42.206;25.320;2024-01-16T10:25:08;98904.91;;;8.17;56.20
73501;BME280;61721;42.206;25.320;2024-01-16T10:27:37;98909.41;;;9.22;53.08
73501;BME280;61721;42.206;25.320;2024-01-16T10:30:05;98911.25;;;10.07;51.11
73501;BME280;61721;42.206;25.320;2024-01-16T10:32:34;98906.56;;;10.78;48.09
73501;BME280;61721;42.206;25.320;2024-01-16T10:35:07;98907.25;;;10.97;47.69
73501;BME280;61721;42.206;25.320;2024-01-16T10:37:46;98909.75;;;11.22;46.54
73501;BME280;61721;42.206;25.320;2024-01-16T10:40:19;98922.16;;;11.41;46.08
73501;BME280;61721;42.206;25.320;2024-01-16T10:42:57;98923.16;;;11.64;44.08
73501;BME280;61721;42.206;25.320;2024-01-16T10:45:24;98921.94;;;10.96;44.81
73501;BME280;61721;42.206;25.320;2024-01-16T10:48:00;98923.00;;;10.84;45.26
73501;BME280;61721;42.206;25.320;2024-01-16T10:50:28;98930.38;;;10.12;47.09
73501;BME280;61721;42.206;25.320;2024-01-16T10:52:59;98939.09;;;11.20;45.10
73501;BME280;61721;42.206;25.320;2024-01-16T10:55:28;98937.56;;;12.16;42.54
73501;BME280;61721;42.206;25.320;2024-01-16T10:57:56;98937.13;;;11.79;42.65
73501;BME280;61721;42.206;25.320;2024-01-16T11:00:27;98935.66;;;12.45;41.44
73501;BME280;61721;42.206;25.320;2024-01-16T11:03:01;98939.59;;;12.20;41.14
73501;BME280;61721;42.206;25.320;2024-01-16T11:05:29;98932.53;;;12.86;39.90
73501;BME280;61721;42.206;25.320;2024-01-16T11:07:59;98930.19;;;13.12;40.98
73501;BME280;61721;42.206;25.320;2024-01-16T11:10:31;98919.13;;;12.68;40.00
73501;BME280;61721;42.206;25.320;2024-01-16T11:13:00;98924.91;;;12.88;39.05
73501;BME280;61721;42.206;25.320;2024-01-16T11:15:29;98925.31;;;13.52;38.77
73501;BME280;61721;42.206;25.320;2024-01-16T11:17:57;98923.44;;;12.97;38.90
73501;BME280;61721;42.206;25.320;2024-01-16T11:20:25;98926.69;;;14.20;38.24
73501;BME280;61721;42.206;25.320;2024-01-16T11:22:53;98929.91;;;13.68;37.42
73501;BME280;61721;42.206;25.320;2024-01-16T11:25:33;98928.31;;;14.75;36.22
73501;BME280;61721;42.206;25.320;2024-01-16T11:28:08;98935.44;;;13.52;36.16
73501;BME280;61721;42.206;25.320;2024-01-16T11:30:36;98942.22;;;13.49;36.35
73501;BME280;61721;42.206;25.320;2024-01-16T11:33:03;98949.34;;;13.50;37.09
73501;BME280;61721;42.206;25.320;2024-01-16T11:35:32;98945.72;;;13.45;36.76
73501;BME280;61721;42.206;25.320;2024-01-16T11:38:04;98950.22;;;14.21;35.48
73501;BME280;61721;42.206;25.320;2024-01-16T11:40:34;98956.72;;;14.15;35.58
73501;BME280;61721;42.206;25.320;2024-01-16T11:43:35;98961.94;;;13.51;35.67
73501;BME280;61721;42.206;25.320;2024-01-16T11:46:03;98965.94;;;13.27;35.43
73501;BME280;61721;42.206;25.320;2024-01-16T11:48:31;98973.91;;;12.78;37.28
73501;BME280;61721;42.206;25.320;2024-01-16T11:50:58;98973.06;;;13.88;35.04
73501;BME280;61721;42.206;25.320;2024-01-16T11:53:33;98986.03;;;13.54;36.02
73501;BME280;61721;42.206;25.320;2024-01-16T11:56:18;98979.38;;;13.89;35.22
73501;BME280;61721;42.206;25.320;2024-01-16T11:59:01;98989.91;;;13.58;35.17
73501;BME280;61721;42.206;25.320;2024-01-16T12:01:35;98979.75;;;11.85;38.12
73501;BME280;61721;42.206;25.320;2024-01-16T12:04:03;98979.56;;;11.51;38.90
73501;BME280;61721;42.206;25.320;2024-01-16T12:06:30;98978.13;;;11.61;39.80
73501;BME280;61721;42.206;25.320;2024-01-16T12:11:59;98994.91;;;10.64;41.33
73501;BME280;61721;42.206;25.320;2024-01-16T12:14:27;98984.66;;;12.11;38.67
73501;BME280;61721;42.206;25.320;2024-01-16T12:17:08;98986.84;;;13.16;36.34
73501;BME280;61721;42.206;25.320;2024-01-16T12:19:36;98980.97;;;12.46;36.97
73501;BME280;61721;42.206;25.320;2024-01-16T12:22:08;98987.97;;;12.13;37.09
73501;BME280;61721;42.206;25.320;2024-01-16T12:24:36;99004.59;;;13.52;35.75
73501;BME280;61721;42.206;25.320;2024-01-16T12:27:05;99019.44;;;13.23;34.95
73501;BME280;61721;42.206;25.320;2024-01-16T12:29:34;99018.09;;;14.46;33.61
73501;BME280;61721;42.206;25.320;2024-01-16T12:32:08;99030.13;;;14.23;33.18
73501;BME280;61721;42.206;25.320;2024-01-16T12:34:44;99030.63;;;15.54;31.42
73501;BME280;61721;42.206;25.320;2024-01-16T12:37:12;99028.66;;;14.59;34.29
73501;BME280;61721;42.206;25.320;2024-01-16T12:39:39;99031.41;;;14.86;32.45
73501;BME280;61721;42.206;25.320;2024-01-16T12:42:09;99037.13;;;14.14;33.56
73501;BME280;61721;42.206;25.320;2024-01-16T12:44:37;99044.06;;;13.61;33.72
73501;BME280;61721;42.206;25.320;2024-01-16T12:47:05;99046.38;;;12.86;35.41
73501;BME280;61721;42.206;25.320;2024-01-16T12:49:33;99053.19;;;15.35;32.74
73501;BME280;61721;42.206;25.320;2024-01-16T12:52:18;99060.75;;;15.22;33.50
73501;BME280;61721;42.206;25.320;2024-01-16T12:54:46;99063.88;;;15.04;32.97
73501;BME280;61721;42.206;25.320;2024-01-16T12:57:19;99060.34;;;15.36;31.07
73501;BME280;61721;42.206;25.320;2024-01-16T12:59:49;99056.91;;;13.61;33.51
73501;BME280;61721;42.206;25.320;2024-01-16T13:02:21;99056.31;;;12.63;35.49
73501;BME280;61721;42.206;25.320;2024-01-16T13:04:57;99049.81;;;12.24;36.35
73501;BME280;61721;42.206;25.320;2024-01-16T13:07:25;99060.59;;;11.91;37.89
73501;BME280;61721;42.206;25.320;2024-01-16T13:10:06;99061.75;;;11.48;37.73